Aviation Digital Data Service (ADDS)

Output produced by TAFs form (1158 UTC 25 June 2018)
found at http://www.aviationweather.gov/adds/tafs/
 
METAR text: EGLL 251150Z AUTO 34005KT 280V040 9999 NCD 27/07 Q1026
Conditions at: EGLL (LONDON/HEATHROW , GB) observed 1150 UTC 25 June 2018
Temperature: 27.0°C (81°F)
Dewpoint: 7.0°C (45°F) [RH = 28%]
Pressure (altimeter): 30.30 inches Hg (1026.0 mb)
Winds: from the NNW (340 degrees) at 6 MPH (5 knots; 2.6 m/s)
Visibility: 6 or more miles (10+ km)
Ceiling: at least 12,000 feet AGL
Clouds: sky clear below 12,000 feet AGL
Weather: no significant weather observed at this time

Forecast for: EGLL (LONDON/HEATHROW , GB)
Text: TAF EGLL 251053Z 2512/2618 35005KT CAVOK
Forecast period: 1200 to 1800 UTC 25 June 2018
Forecast type: FROM: standard forecast or significant change
Winds: from the N (350 degrees) at 6 MPH (5 knots; 2.6 m/s)
Visibility: 6 or more miles (10+ km)
Clouds: not forecast
Weather: NSW  (no significant weather)
Text: BECMG 2518/2521 05010KT
Forecast period: 1800 UTC 25 June 2018 to 1800 UTC 26 June 2018
Forecast type: BECOMING: Conditions expected to become as follows by 2100 UTC 25 June 2018
Winds: from the NE (50 degrees) at 12 MPH (10 knots; 5.2 m/s)
Visibility: 6 or more miles (10+ km)
Weather: NSW  (no significant weather)

METAR text: ZBAA 251130Z 10003MPS 070V130 5000 HZ NSC 28/22 Q1002 NOSIG
Conditions at: ZBAA (BEIJING/PEKING , CN) observed 1130 UTC 25 June 2018
Temperature: 28.0°C (82°F)
Dewpoint: 22.0°C (72°F) [RH = 70%]
Pressure (altimeter): 29.59 inches Hg (1002.0 mb)
Winds: from the E (100 degrees) at 7 MPH (6 knots; 3.1 m/s)
Visibility: 3 miles (5 km)
Ceiling: at least 12,000 feet AGL
Clouds: sky clear below 12,000 feet AGL
Weather: HZ  (haze)

Forecast for: ZBAA (BEIJING/PEKING , CN)
Text: TAF ZBAA 250920Z 2512/2612 06004MPS 5000 BR NSC TX34/2607Z TN22/2521Z
Forecast period: 1200 UTC 25 June 2018 to 1200 UTC 26 June 2018
Forecast type: FROM: standard forecast or significant change
Winds: from the ENE (60 degrees) at 9 MPH (8 knots; 4.2 m/s)
Visibility: 3 miles (5 km)
Clouds: not forecast
Weather: BR  (mist)

METAR text: ZUUU 251100Z 01003MPS 340V050 9999 SCT050 28/25 Q1000 NOSIG
Conditions at: ZUUU (CHENGDU , CN) observed 1100 UTC 25 June 2018
Temperature: 28.0°C (82°F)
Dewpoint: 25.0°C (77°F) [RH = 84%]
Pressure (altimeter): 29.53 inches Hg (1000.0 mb)
Winds: from the N (10 degrees) at 7 MPH (6 knots; 3.1 m/s)
Visibility: 6 or more miles (10+ km)
Ceiling: at least 12,000 feet AGL
Clouds: scattered clouds at 5000 feet AGL
Weather: no significant weather observed at this time

Forecast for: ZUUU (CHENGDU , CN)
Text: TAF ZUUU 250814Z 2512/2612 02003MPS 5000 BR SCT040 TX29/2607Z TN24/2522Z
Forecast period: 1200 UTC 25 June 2018 to 1200 UTC 26 June 2018
Forecast type: FROM: standard forecast or significant change
Winds: from the NNE (20 degrees) at 7 MPH (6 knots; 3.1 m/s)
Visibility: 3 miles (5 km)
Clouds: scattered clouds at 4000 feet AGL
Weather: BR  (mist)
Text: TEMPO 2516/2518 SHRA FEW030CB SCT030
Forecast period: 1600 to 1800 UTC 25 June 2018
Forecast type: TEMPORARY: The following changes expected for less than half the time period
Clouds: few clouds at 3000 feet AGL
scattered clouds at 3000 feet AGL
Weather: SHRA  (rain showers)

METAR text: ZLXY 251100Z 04003MPS 7000 FEW030 OVC050 26/22 Q1002 NOSIG
Conditions at: ZLXY (XIANYANG , CN) observed 1100 UTC 25 June 2018
Temperature: 26.0°C (79°F)
Dewpoint: 22.0°C (72°F) [RH = 79%]
Pressure (altimeter): 29.59 inches Hg (1002.0 mb)
Winds: from the NE (40 degrees) at 7 MPH (6 knots; 3.1 m/s)
Visibility: 4 miles (7 km)
Ceiling: 5000 feet AGL
Clouds: few clouds at 3000 feet AGL
overcast cloud deck at 5000 feet AGL
Weather: no significant weather observed at this time

Forecast for: ZLXY (XIANYANG , CN)
Text: TAF ZLXY 250918Z 2512/2612 05003G08MPS 2800 -RA BR BKN030 OVC050 TX31/2608Z TN23/2522Z
Forecast period: 1200 UTC 25 June 2018 to 0200 UTC 26 June 2018
Forecast type: FROM: standard forecast or significant change
Winds: from the NE (50 degrees) at 7 MPH (6 knots; 3.1 m/s)
gusting to 18 MPH (16 knots; 8.3 m/s)
Visibility: 1.74 miles (2.80 km)
Ceiling: 3000 feet AGL
Clouds: broken clouds at 3000 feet AGL
overcast cloud deck at 5000 feet AGL
Weather: -RA BR  (light rain, mist)
Text: BECMG 2602/2603 3000 BR
Forecast period: 0200 to 1200 UTC 26 June 2018
Forecast type: BECOMING: Conditions expected to become as follows by 0300 UTC 26 June 2018
Winds: from the NE (50 degrees) at 7 MPH (6 knots; 3.1 m/s)
gusting to 18 MPH (16 knots; 8.3 m/s)
Visibility: 1.86 miles (2.99 km)
Ceiling: 3000 feet AGL
Clouds: broken clouds at 3000 feet AGL
overcast cloud deck at 5000 feet AGL
Weather: BR  (mist)
Text: TEMPO 2512/2518 26005G12MPS 1400 TSRA FEW040CB OVC050
Forecast period: 1200 to 1800 UTC 25 June 2018
Forecast type: TEMPORARY: The following changes expected for less than half the time period
Winds: from the W (260 degrees) at 12 MPH (10 knots; 5.2 m/s)
gusting to 26 MPH (23 knots; 12.0 m/s)
Visibility: 0.87 miles (1.40 km)
Ceiling: 5000 feet AGL
Clouds: few clouds at 4000 feet AGL
overcast cloud deck at 5000 feet AGL
Weather: TSRA  (rain associated with thunderstorm(s))

METAR text: ZSPD 251130Z 15003MPS CAVOK 27/24 Q1007 NOSIG
Conditions at: ZSPD (SHANGHAI/PUDONG , CN) observed 1130 UTC 25 June 2018
Temperature: 27.0°C (81°F)
Dewpoint: 24.0°C (75°F) [RH = 84%]
Pressure (altimeter): 29.73 inches Hg (1007.0 mb)
Winds: from the SSE (150 degrees) at 7 MPH (6 knots; 3.1 m/s)
Visibility: 6 or more miles (10+ km)
Ceiling: ceiling and visibility are OK
Clouds: unknown
Weather: no significant weather observed at this time

Forecast for: ZSPD (SHANGHAI/PUDONG , CN)
Text: TAF ZSPD 250914Z 2512/2612 16004MPS 6000 SCT020 TX36/2606Z TN26/2521Z
Forecast period: 1200 UTC 25 June 2018 to 1200 UTC 26 June 2018
Forecast type: FROM: standard forecast or significant change
Winds: from the SSE (160 degrees) at 9 MPH (8 knots; 4.2 m/s)
Visibility: 4 miles (6 km)
Clouds: scattered clouds at 2000 feet AGL
Weather: no significant weather forecast for this period

METAR text: ZSSS 251130Z 15004MPS CAVOK 31/25 Q1006 NOSIG
Conditions at: ZSSS (SHANGHAI/HONGQIA, CN) observed 1130 UTC 25 June 2018
Temperature: 31.0°C (88°F)
Dewpoint: 25.0°C (77°F) [RH = 71%]
Pressure (altimeter): 29.70 inches Hg (1006.0 mb)
Winds: from the SSE (150 degrees) at 9 MPH (8 knots; 4.2 m/s)
Visibility: 6 or more miles (10+ km)
Ceiling: ceiling and visibility are OK
Clouds: unknown
Weather: no significant weather observed at this time

Forecast for: ZSSS (SHANGHAI/HONGQIA, CN)
Text: TAF ZSSS 250912Z 2512/2612 18004MPS 6000 SCT030 TX37/2606Z TN27/2521Z
Forecast period: 1200 UTC 25 June 2018 to 1200 UTC 26 June 2018
Forecast type: FROM: standard forecast or significant change
Winds: from the S (180 degrees) at 9 MPH (8 knots; 4.2 m/s)
Visibility: 4 miles (6 km)
Clouds: scattered clouds at 3000 feet AGL
Weather: no significant weather forecast for this period

METAR text: VHHH 251130Z 16009KT 140V210 9999 FEW016 29/24 Q1008 NOSIG
Conditions at: VHHH (HONG KONG INTL , HK) observed 1130 UTC 25 June 2018
Temperature: 29.0°C (84°F)
Dewpoint: 24.0°C (75°F) [RH = 74%]
Pressure (altimeter): 29.76 inches Hg (1008.0 mb)
Winds: from the SSE (160 degrees) at 10 MPH (9 knots; 4.7 m/s)
Visibility: 6 or more miles (10+ km)
Ceiling: at least 12,000 feet AGL
Clouds: few clouds at 1600 feet AGL
Weather: no significant weather observed at this time

Forecast for: VHHH (HONG KONG INTL , HK)
Text: TAF VHHH 251100Z 2512/2618 18010KT 9999 FEW012 SCT025 TX32/2607Z TN27/2522Z
Forecast period: 1200 UTC 25 June 2018 to 1800 UTC 26 June 2018
Forecast type: FROM: standard forecast or significant change
Winds: from the S (180 degrees) at 12 MPH (10 knots; 5.2 m/s)
Visibility: 6 or more miles (10+ km)
Clouds: few clouds at 1200 feet AGL
scattered clouds at 2500 feet AGL
Weather: no significant weather forecast for this period
Text: TEMPO 2512/2515 3500 SHRA FEW012CB SCT025
Forecast period: 1200 to 1500 UTC 25 June 2018
Forecast type: TEMPORARY: The following changes expected for less than half the time period
Visibility: 2.17 miles (3.49 km)
Clouds: few clouds at 1200 feet AGL
scattered clouds at 2500 feet AGL
Weather: SHRA  (rain showers)
Text: TEMPO 2521/2603 3500 SHRA FEW012CB SCT025
Forecast period: 2100 UTC 25 June 2018 to 0300 UTC 26 June 2018
Forecast type: TEMPORARY: The following changes expected for less than half the time period
Visibility: 2.17 miles (3.49 km)
Clouds: few clouds at 1200 feet AGL
scattered clouds at 2500 feet AGL
Weather: SHRA  (rain showers)